Stream Gauges

 

John Redmond Lake



    
SHEF ID:       JRLK1     John Redmond Lake
STATION TYPE:  RESERVOIR
Normal Pool:  Bottom =  1026.00, Top =  1041.00

               PRECIP ELEVATION   STORAGE    INFLOW   RELEASE  AIR-TEMP  WIND-DIRWIND-SPEED REL-HUMID SOLAR-RAD   VOLTAGE  BAT-LOAD
                   in        ft     ac-ft       cfs       cfs         F       deg       mph         %      W/m2      volt      volt
              Ccp-Rev   Ccp-Rev   Ccp-Rev  Regi-Rev  Regi-Rev   Ccp-Rev   Ccp-Rev   Ccp-Rev   Ccp-Rev   Ccp-Rev   Ccp-Rev   Ccp-Rev
(US/Central)
08/17 00:00      0.01   1040.33     61336      1559       122     73.09    229.70     13.00     99.69      0.00     12.76     12.54
08/17 01:00      0.00   1040.26     60712       409       122     71.40    153.20      5.00    100.05      0.00     12.74     12.48
08/17 02:00      0.00   1040.28     60890       398       122     72.59      4.20      6.90     98.65      0.00     12.73     12.46
08/17 03:00      0.00   1040.28     60890       302       122     73.71    336.30      9.70     95.90      0.00     12.71     12.44
08/17 04:00      0.02   1040.30     61068       207       122     72.23    342.90      9.00    100.12      0.00     12.69     12.43
08/17 05:00      0.00   1040.29     60979       111       122     73.54    289.70      9.10     99.40      0.00     12.68     12.41
08/17 06:00      0.00   1040.31     61158        15       122     73.47    307.70      8.30     99.65      0.00     12.67     12.40
08/17 07:00      0.00   1040.28     60890         5       122     72.48    287.20      3.20    100.21      0.50     12.67     12.40
08/17 08:00      0.00   1040.26     60712        28       122     73.08    344.80      5.80    100.20     63.80     12.73     12.46
08/17 09:00      0.00   1040.24     60534        52       122     73.04    335.00      2.10    100.20    137.40     13.09     12.53
08/17 10:00      0.00   1040.25     60623        76       122     74.98     22.90      2.60     95.89    418.40     13.41     13.07
08/17 11:00      0.00   1040.26     60712       316       122     76.66    300.40      2.80     92.03    617.60     13.47     13.19
08/17 12:00      0.00   1040.26     60712       768       122     77.43    284.80      5.60     87.73    800.60     13.45     13.14
08/17 13:00      0.00   1040.27     60801       768       122     79.99    341.70      8.90     69.42    923.60     13.61     13.07
08/17 14:00      0.00   1040.29     60979       768       122     81.10    357.00     10.30     66.26    865.80     13.98     12.88
08/17 15:00      0.00   1040.28     60890       768       122     82.26      1.00      9.10     61.02    819.40     13.55     12.84
08/17 16:00      0.00   1040.29     60979       553       122     83.39      3.80      9.60     55.07    777.60     14.10     12.86
08/17 17:00      0.00   1040.29     60979      -901      -901     84.58     12.50      8.70     53.11    598.30     14.09     12.83
08/17 18:00      ----      ----      ----      -901      -901      ----      ----      ----      ----      ----      ----      ----
08/17 19:00      ----      ----      ----      ----      ----      ----      ----      ----      ----      ----      ----      ----
08/17 20:00      ----      ----      ----      ----      ----      ----      ----      ----      ----      ----      ----      ----
08/17 21:00      ----      ----      ----      ----      ----      ----      ----      ----      ----      ----      ----      ----
08/17 22:00      ----      ----      ----      ----      ----      ----      ----      ----      ----      ----      ----      ----
08/17 23:00      ----      ----      ----      ----      ----      ----      ----      ----      ----      ----      ----      ----

    

 

Burlington



    
SHEF ID:       BRLK1     Neosho River, Burlington, KS
STATION TYPE:  

               PRECIP     STAGE  RIV-FLOW  BAT-LOAD
                   in        ft       cfs      volt
              Ccp-Rev   Ccp-Rev   Ccp-Rev   Ccp-Rev
(US/Central)
08/17 00:00      0.00      5.81        61     12.83
08/17 01:00      0.00      5.81        61     12.77
08/17 02:00      0.00      5.79        57     12.77
08/17 03:00      0.00      5.78        55     12.42
08/17 04:00      0.00      5.78        55     12.71
08/17 05:00      0.00      5.77        53     12.71
08/17 06:00      0.00      5.77        53     12.71
08/17 07:00      0.00      5.76        51     12.71
08/17 08:00      0.00      5.76        51     12.71
08/17 09:00      0.00      5.75        49     12.71
08/17 10:00      0.00      5.75        49     13.24
08/17 11:00      0.00      5.75        49     13.30
08/17 12:00      0.00      5.75        49     13.94
08/17 13:00      0.00      5.75        49     13.42
08/17 14:00      0.00      5.75        49     13.42
08/17 15:00      0.00      5.75        49     13.36
08/17 16:00      0.00      5.75        49     13.30
08/17 17:00      ----      ----      ----      ----
08/17 18:00      ----      ----      ----      ----
08/17 19:00      ----      ----      ----      ----
08/17 20:00      ----      ----      ----      ----
08/17 21:00      ----      ----      ----      ----
08/17 22:00      ----      ----      ----      ----
08/17 23:00      ----      ----      ----      ----

    

 

Iola



    
SHEF ID:       IOLK1     NEOSHO RIVER NEAR IOLA
STATION TYPE:  

               PRECIP     STAGE  RIV-FLOW  AIR-TEMP  BAT-LOAD
                   in        ft       cfs         F      volt
              Ccp-Rev   Ccp-Rev   Ccp-Rev   Ccp-Rev   Ccp-Rev
(US/Central)
08/17 00:00      0.00      7.76      1480     70.51     12.73
08/17 01:00      0.02      8.05      2129     70.24     12.73
08/17 02:00      0.00      8.29      2728     69.77     12.65
08/17 03:00      0.00      8.41      3047     69.51     12.65
08/17 04:00      0.00      8.44      3129     69.68     12.65
08/17 05:00      0.03      8.40      3020     69.99     12.65
08/17 06:00      0.01      8.34      2860     70.08     12.57
08/17 07:00      0.00      8.32      2807     70.34     12.57
08/17 08:00      0.00      8.32      2807     70.77     12.65
08/17 09:00      0.00      8.33      2833     70.70     12.73
08/17 10:00      0.00      8.31      2781     72.37     12.89
08/17 11:00      0.00      8.30      2754     77.18     13.37
08/17 12:00      0.00      8.28      2702     83.02     13.29
08/17 13:00      0.00      8.23      2574     84.72     13.44
08/17 14:00      0.00      8.17      2422     88.09     13.37
08/17 15:00      0.00      8.11      2274     86.53     13.44
08/17 16:00      0.00      8.03      2226     87.10     13.44
08/17 17:00      ----      8.01      ----     87.81     13.53
08/17 18:00      ----      ----      ----      ----      ----
08/17 19:00      ----      ----      ----      ----      ----
08/17 20:00      ----      ----      ----      ----      ----
08/17 21:00      ----      ----      ----      ----      ----
08/17 22:00      ----      ----      ----      ----      ----
08/17 23:00      ----      ----      ----      ----      ----

    

 

Chanute



    
SHEF ID:       CNUK1     NEOSHO R NR CHANUTE, KS
STATION TYPE:  

               PRECIP     STAGE  RIV-FLOW   VOLTAGE  BAT-LOAD
                   in        ft       cfs      volt      volt
              Ccp-Rev   Ccp-Rev   Ccp-Rev   Ccp-Rev   Ccp-Rev
(US/Central)
08/17 00:00      0.02      8.16       323     12.81     12.65
08/17 01:00      0.03      8.44       493     12.81     12.65
08/17 02:00      0.04      8.77       760     12.81     12.65
08/17 03:00      0.00      9.04      1030     12.81     12.65
08/17 04:00      0.01      9.25      1240     12.73     12.57
08/17 05:00      0.05      9.43      1420     12.73     12.57
08/17 06:00      0.25      9.60      1590     12.73     12.57
08/17 07:00      0.01      9.89      1880     12.73     12.57
08/17 08:00      0.00     10.15      2163     12.73     12.57
08/17 09:00      0.00     10.40      2450     12.73     12.57
08/17 10:00      0.00     10.57      2646     13.05     12.57
08/17 11:00      0.00     10.65      2738     13.37     13.13
08/17 12:00      0.00     10.67      2761     13.76     13.37
08/17 13:00      0.00     10.65      2738     13.53     13.53
08/17 14:00      0.00     10.63      2715     14.00     13.53
08/17 15:00      0.00     10.62      2703     13.76     13.60
08/17 16:00      0.00     10.61      2692     13.92     13.29
08/17 17:00      ----      ----      ----      ----      ----
08/17 18:00      ----      ----      ----      ----      ----
08/17 19:00      ----      ----      ----      ----      ----
08/17 20:00      ----      ----      ----      ----      ----
08/17 21:00      ----      ----      ----      ----      ----
08/17 22:00      ----      ----      ----      ----      ----
08/17 23:00      ----      ----      ----      ----      ----

    

 

Parsons



    
SHEF ID:       PPFK1     NEOSHO RIVER NEAR PARSONS 8E
STATION TYPE:  

               PRECIP     STAGE  RIV-FLOW ELEVATION  BAT-LOAD
                   in        ft       cfs        ft      volt
              Ccp-Rev   Ccp-Rev   Ccp-Rev   Ccp-Rev   Ccp-Rev
(US/Central)
08/17 00:00      0.00      7.10       109      ----     12.89
08/17 01:00      0.01      7.12       116      ----     12.89
08/17 02:00      0.10      7.12       116      ----     12.89
08/17 03:00      0.02      7.11       112      ----     12.89
08/17 04:00      0.00      7.10       109      ----     12.83
08/17 05:00      0.00      7.10       109      ----     12.77
08/17 06:00      0.66      7.18       136      ----     12.83
08/17 07:00      0.47      7.30       183      ----     12.83
08/17 08:00      0.81      7.40       231      ----     12.83
08/17 09:00      0.58      7.64       384      ----     12.77
08/17 10:00      0.28      8.10       782      ----     12.77
08/17 11:00      0.01      8.52      1233      ----     13.07
08/17 12:00      0.00      8.70      1442      ----     13.53
08/17 13:00      0.00      8.74      1489      ----     13.77
08/17 14:00      ----      8.74      ----      ----     13.94
08/17 15:00      ----      ----      ----      ----      ----
08/17 16:00      ----      ----      ----      ----      ----
08/17 17:00      ----      ----      ----      ----      ----
08/17 18:00      ----      ----      ----      ----      ----
08/17 19:00      ----      ----      ----      ----      ----
08/17 20:00      ----      ----      ----      ----      ----
08/17 21:00      ----      ----      ----      ----      ----
08/17 22:00      ----      ----      ----      ----      ----
08/17 23:00      ----      ----      ----      ----      ----

    

 

Oswego



    
SHEF ID:       OSOK1     Oswego hwy 160
STATION TYPE:  

               PRECIP     STAGE  RIV-FLOW   VOLTAGE  BAT-LOAD
                   in        ft       cfs      volt      volt
              Ccp-Rev   Ccp-Rev   Ccp-Rev   Ccp-Rev   Ccp-Rev
(US/Central)
08/17 00:00      0.00      8.17       146     12.49     12.41
08/17 01:00      0.00      8.18       147     12.49     12.41
08/17 02:00      0.22      8.21       151     12.49     12.41
08/17 03:00      0.03      8.20       149     12.41     12.33
08/17 04:00      0.01      8.20       149     12.41     12.33
08/17 05:00      0.03      8.22       152     12.41     12.33
08/17 06:00      0.09      8.20       149     12.41     12.33
08/17 07:00      0.69      8.27       158     12.41     12.33
08/17 08:00      0.53      8.48       185     12.41     12.33
08/17 09:00      0.28      8.65       235     12.33     12.25
08/17 10:00      0.48      8.92       425     12.41     12.25
08/17 11:00      0.01      9.18       607     13.05     12.65
08/17 12:00      0.00      9.45       833     13.29     13.21
08/17 13:00      0.00      9.86      1181     13.37     13.21
08/17 14:00      0.00     10.32      1571     13.60     13.21
08/17 15:00      0.00     10.79      1970     13.68     12.97
08/17 16:00      0.00     11.15      ----     14.08     12.97
08/17 17:00      ----      ----      ----      ----      ----
08/17 18:00      ----      ----      ----      ----      ----
08/17 19:00      ----      ----      ----      ----      ----
08/17 20:00      ----      ----      ----      ----      ----
08/17 21:00      ----      ----      ----      ----      ----
08/17 22:00      ----      ----      ----      ----      ----
08/17 23:00      ----      ----      ----      ----      ----

    

 

Commerce



    
SHEF ID:       COMO2     Neosho River nr Commerce, OK
STATION TYPE:  

               PRECIP     STAGE  STAGE(2)  RIV-FLOW  BAT-LOAD
                   in        ft        ft       cfs      volt
              Ccp-Rev   Ccp-Rev   Ccp-Rev   Ccp-Rev   Ccp-Rev
(US/Central)
08/17 00:00      0.00      3.17      3.15       823     12.57
08/17 01:00      0.00      3.14      3.12       787     12.57
08/17 02:00      0.00      3.09      3.08       728     12.57
08/17 03:00      0.16      3.05      3.02       683     12.57
08/17 04:00      0.03      3.01      2.99       639     12.57
08/17 05:00      0.01      2.98      2.95       607     12.57
08/17 06:00      0.26      2.96      2.95       587     12.57
08/17 07:00      0.57      2.95      3.01       577     12.57
08/17 08:00      0.35      3.12      3.13       763     12.57
08/17 09:00      0.34      3.64      3.85      1502     12.49
08/17 10:00      0.72      4.95      5.28      3659     12.57
08/17 11:00      0.04      6.80      6.86      6874     12.49
08/17 12:00      0.00      8.38      8.65      9636     13.13
08/17 13:00      0.00     10.10     10.03     12710     13.53
08/17 14:00      0.00     11.01     10.99     14359     13.44
08/17 15:00      0.00     11.56     11.60     15363     13.21
08/17 16:00      0.00     12.04     11.94     16244     13.13
08/17 17:00      ----      ----      ----      ----     12.97
08/17 18:00      ----      ----      ----      ----      ----
08/17 19:00      ----      ----      ----      ----      ----
08/17 20:00      ----      ----      ----      ----      ----
08/17 21:00      ----      ----      ----      ----      ----
08/17 22:00      ----      ----      ----      ----      ----
08/17 23:00      ----      ----      ----      ----      ----

    

 

Spring River , Quapaw



    
SHEF ID:       QUAO2     Spring River near Quapaw, OK
STATION TYPE:  

               PRECIP     STAGE  STAGE(2)  RIV-FLOW  BAT-LOAD
                   in        ft        ft       cfs      volt
              Ccp-Rev   Ccp-Rev   Ccp-Rev   Ccp-Rev   Ccp-Rev
(US/Central)
08/17 00:00      0.00      6.14      6.14       421     12.41
08/17 01:00      0.00      6.12      6.14       412     12.41
08/17 02:00      0.00      6.10      6.09       403     12.33
08/17 03:00      0.35      6.12      6.09       412     12.41
08/17 04:00      0.02      6.11      6.13       408     12.33
08/17 05:00      0.00      6.10      6.12       403     12.33
08/17 06:00      0.00      6.08      6.09       395     12.41
08/17 07:00      0.09      6.06      6.03       387     12.41
08/17 08:00      0.14      6.07      6.03       391     12.41
08/17 09:00      0.26      6.09      6.05       399     12.33
08/17 10:00      0.35      6.12      6.06       412     12.41
08/17 11:00      0.09      6.12      6.09       412     12.41
08/17 12:00      0.00      6.11      6.12       408     12.57
08/17 13:00      0.00      6.11      6.11       408     13.29
08/17 14:00      0.00      6.12      6.12       412     13.29
08/17 15:00      0.00      6.15      6.15       425     13.37
08/17 16:00      0.00      6.20      6.21       448     13.13
08/17 17:00      ----      ----      ----      ----      ----
08/17 18:00      ----      ----      ----      ----      ----
08/17 19:00      ----      ----      ----      ----      ----
08/17 20:00      ----      ----      ----      ----      ----
08/17 21:00      ----      ----      ----      ----      ----
08/17 22:00      ----      ----      ----      ----      ----
08/17 23:00      ----      ----      ----      ----      ----

    

 

Elk River, Tiff City



    
SHEF ID:       TIFM7     Elk River near Tiff City, Mo
STATION TYPE:  

               PRECIP     STAGE  STAGE(2)  RIV-FLOW   VOLTAGE
                   in        ft        ft       cfs      volt
              Ccp-Rev   Ccp-Rev   Ccp-Rev   Ccp-Rev   Ccp-Rev
(US/Central)
08/17 00:00      0.00      2.89      2.90       153     12.90
08/17 01:00      0.00      2.89      2.90       153     12.90
08/17 02:00      0.00      2.89      2.90       153     12.80
08/17 03:00      0.00      2.89      2.90       153     12.80
08/17 04:00      0.00      2.88      2.90       151     12.80
08/17 05:00      0.07      2.88      2.90       151     12.80
08/17 06:00      0.00      2.89      2.89       153     12.80
08/17 07:00      0.09      2.89      2.87       153     12.80
08/17 08:00      0.16      2.90      2.91       155     12.80
08/17 09:00      0.07      2.91      2.90       157     12.80
08/17 10:00      0.10      2.92      2.93       159     12.80
08/17 11:00      0.46      2.96      2.96       167     12.60
08/17 12:00      0.01      2.97      2.99       169     13.70
08/17 13:00      0.00      2.97      2.98       169     13.70
08/17 14:00      0.05      2.97      3.00       169     13.50
08/17 15:00      0.00      2.97     33.21       169     13.40
08/17 16:00      0.00      2.98      3.00       171     13.60
08/17 17:00      ----      ----      ----      ----      ----
08/17 18:00      ----      ----      ----      ----      ----
08/17 19:00      ----      ----      ----      ----      ----
08/17 20:00      ----      ----      ----      ----      ----
08/17 21:00      ----      ----      ----      ----      ----
08/17 22:00      ----      ----      ----      ----      ----
08/17 23:00      ----      ----      ----      ----      ----

    

 

Grand Lake, Pensacola Dam



    
SHEF ID:       PENO2     Pensacola (Grand Lake)
STATION TYPE:  RESERVOIR

               PRECIP ELEVATION   STORAGE    INFLOW   RELEASE  AIR-TEMP  WIND-DIRWIND-SPEED REL-HUMID SOLAR-RAD   VOLTAGE  BAT-LOAD
                   in        ft     ac-ft       cfs       cfs         F       deg       mph         %      W/m2      volt      volt
              Ccp-Rev   Ccp-Rev   Ccp-Rev  Regi-Rev  Regi-Rev   Ccp-Rev   Ccp-Rev   Ccp-Rev   Ccp-Rev   Ccp-Rev   Ccp-Rev   Ccp-Rev
(US/Central)
08/17 00:00      0.00    743.00   1433000      4029      3343     74.73     22.06      2.63     87.65      0.00     12.82     12.33
08/17 01:00      0.00    743.01   1433409      3425       215     73.24    167.67      1.42     89.97      0.00     12.83     12.25
08/17 02:00      0.00    743.09   1436681      3283       215     74.75      8.39      2.42     85.17      0.00     12.81     12.25
08/17 03:00      0.00    743.05   1435045      3141       215     76.33    328.24     13.82     80.70      0.00     12.79     12.25
08/17 04:00      0.00    743.03   1434227      1492       215     76.03     12.92      4.28     77.36      0.00     12.80     12.17
08/17 05:00      0.00    743.02   1433818      6293       215     73.98    175.59      1.00     82.66      0.00     12.78     12.17
08/17 06:00      0.00    743.02   1433818      6293       215     73.83    169.12      1.13     83.21      0.00     12.78     12.17
08/17 07:00      0.00    743.12   1437908      6293       215     75.20      8.55      5.80     81.59      0.00     12.77     12.17
08/17 08:00      0.21    743.27   1444043      6293       215     73.38    356.51     10.35     93.30      0.00     12.77     12.17
08/17 09:00      0.05    743.08   1436272      -901      -901     72.32    326.81      2.52     97.50      0.00     12.75     12.17
08/17 10:00      0.09    743.11   1437499      -901      -901     71.47     26.54      3.85     97.17     16.46     12.75     12.17
08/17 11:00      0.09    743.18   1440362      -901      -901     72.07      1.66      7.59     94.28     73.06     12.73     12.17
08/17 12:00      0.00    743.19   1440771      -901      -901     73.98      7.53      1.77     90.42    546.06     12.72     12.17
08/17 13:00      0.00    743.03   1434227      -901      -901     78.04    313.96      1.18     76.57    727.54     12.74     12.17
08/17 14:00      0.00    743.08   1436272      -901      -901     80.44    338.87      2.16     70.44    614.42     12.74     12.09
08/17 15:00      0.00    743.17   1439953      -901      -901     81.50    353.80      4.24     71.32    510.84     12.71     12.09
08/17 16:00      0.00    743.13   1438317      -901      -901     81.75     14.12      5.19     72.48    299.37     12.72     12.17
08/17 17:00      ----      ----      ----      ----      ----      ----      ----      ----      ----      ----      ----      ----
08/17 18:00      ----      ----      ----      ----      ----      ----      ----      ----      ----      ----      ----      ----
08/17 19:00      ----      ----      ----      ----      ----      ----      ----      ----      ----      ----      ----      ----
08/17 20:00      ----      ----      ----      ----      ----      ----      ----      ----      ----      ----      ----      ----
08/17 21:00      ----      ----      ----      ----      ----      ----      ----      ----      ----      ----      ----      ----
08/17 22:00      ----      ----      ----      ----      ----      ----      ----      ----      ----      ----      ----      ----
08/17 23:00      ----      ----      ----      ----      ----      ----      ----      ----      ----      ----      ----      ----

    

 

Big Cabin Creek



    
SHEF ID:       BGCO2     Big Cabin Creek near Big Cabin,
STATION TYPE:  

               PRECIP     STAGE  STAGE(2)  RIV-FLOW  BAT-LOAD
                   in        ft        ft       cfs      volt
              Ccp-Rev   Ccp-Rev   Ccp-Rev   Ccp-Rev   Ccp-Rev
(US/Central)
08/17 00:00      0.00     12.06     12.06         2     12.65
08/17 01:00      0.00     12.06     12.07         2     12.57
08/17 02:00      0.00     12.05     12.07         2     12.57
08/17 03:00      0.00     12.05     12.06         2     12.57
08/17 04:00      0.00     12.05     12.06         2     12.57
08/17 05:00      0.00     12.05     12.06         2     12.57
08/17 06:00      0.00     12.05     12.06         2     12.57
08/17 07:00      0.00     12.04     12.06         2     12.57
08/17 08:00      0.39     12.11     12.12         3     12.57
08/17 09:00      0.02     12.11     12.13         3     12.49
08/17 10:00      0.05     12.12     12.14         3     12.49
08/17 11:00      0.07     12.13     12.14         4     12.57
08/17 12:00      0.00     12.14     12.06         4     13.53
08/17 13:00      0.01     12.14     12.14         4     13.37
08/17 14:00      0.00     12.15     12.14         4     13.37
08/17 15:00      0.00     12.16     12.14         4     13.29
08/17 16:00      0.00     12.16     12.14         4     13.21
08/17 17:00      ----      ----      ----      ----     13.13
08/17 18:00      ----      ----      ----      ----      ----
08/17 19:00      ----      ----      ----      ----      ----
08/17 20:00      ----      ----      ----      ----      ----
08/17 21:00      ----      ----      ----      ----      ----
08/17 22:00      ----      ----      ----      ----      ----
08/17 23:00      ----      ----      ----      ----      ----

    

 

Spavinaw Lake (Lower)




 

Hudson Lake



    
SHEF ID:       MFDO2     Lake Hudson
STATION TYPE:  RESERVOIR

               PRECIP ELEVATION   STORAGE   TW-ELEV    INFLOW   RELEASE  AIR-TEMP  WIND-DIRWIND-SPEED REL-HUMID SOLAR-RAD   VOLTAGE  BAT-LOAD
                   in        ft     ac-ft        ft       cfs       cfs         F       deg       mph         %      W/m2      volt      volt
              Ccp-Rev   Ccp-Rev   Ccp-Rev   Ccp-Rev  Regi-Rev  Regi-Rev   Ccp-Rev   Ccp-Rev   Ccp-Rev   Ccp-Rev   Ccp-Rev   Ccp-Rev   Ccp-Rev
(US/Central)
08/17 00:00      0.00    619.64    207300    561.34       170       434     74.37    117.80      2.50     81.67      0.00     12.66     12.17
08/17 01:00      0.00    619.64    207300    561.09       170       435     75.02     60.30      3.90     82.37      0.00     12.65     12.17
08/17 02:00      0.00    619.65    207411    560.88       136       435     73.15    222.30      0.40     84.72      0.00     12.64     12.09
08/17 03:00      0.00    619.64    207300    560.71       102       435     73.85    327.60      5.20     85.44      0.00     12.63     12.09
08/17 04:00      0.00    619.57    206523    560.56       276       435     76.39     61.90      7.10     77.57      0.00     12.63     12.09
08/17 05:00      0.00    619.56    206412    560.44       451       435     75.51    109.60      4.10     76.28      0.00     12.62     12.09
08/17 06:00      0.00    619.52    205967    560.34       417       435     74.01    115.00      1.60     80.95      0.00     12.61     12.09
08/17 07:00      0.00    619.52    205967    560.24       417       435     73.49    143.50      1.00     82.09      0.00     12.61     12.09
08/17 08:00      0.01    619.61    206967    560.16       417       435     75.47     14.40      8.40     80.30      0.00     12.60     12.09
08/17 09:00      0.73    619.48    205523    560.13      -901      -901     73.92     33.30      8.70     88.35      0.00     12.60     12.09
08/17 10:00      0.03    619.56    206412    560.08      -901      -901     71.74     80.10      6.40     87.35      3.00     12.60     12.09
08/17 11:00      0.00    619.57    206523    560.00      -901      -901     73.17     67.10      9.40     87.88     83.30     12.63     12.09
08/17 12:00      0.00    619.55    206300    559.93      -901      -901     74.23     98.20      8.40     83.22    141.20     12.71     12.09
08/17 13:00      0.00    619.57    206523    560.18      -901      -901     79.39     96.50      5.70     68.06     91.10     12.71     12.17
08/17 14:00      0.00    619.68    207745    562.20      -901      -901     83.79     95.90      2.60     58.52    268.00     13.02     12.17
08/17 15:00      0.00    619.84    209522    564.68      -901      -901     86.65     27.30      1.20     56.51    631.30     13.00     12.49
08/17 16:00      0.00    619.91    210300    565.79      -901      -901     86.95    297.10      1.40     57.24    333.60     12.95     12.41
08/17 17:00      0.00    619.98    211078    566.36      -901      -901     86.14    295.40      2.50     61.45    290.80     12.91     12.41
08/17 18:00      ----      ----      ----      ----      ----      ----      ----      ----      ----      ----      ----      ----      ----
08/17 19:00      ----      ----      ----      ----      ----      ----      ----      ----      ----      ----      ----      ----      ----
08/17 20:00      ----      ----      ----      ----      ----      ----      ----      ----      ----      ----      ----      ----      ----
08/17 21:00      ----      ----      ----      ----      ----      ----      ----      ----      ----      ----      ----      ----      ----
08/17 22:00      ----      ----      ----      ----      ----      ----      ----      ----      ----      ----      ----      ----      ----
08/17 23:00      ----      ----      ----      ----      ----      ----      ----      ----      ----      ----      ----      ----      ----